sensor_id;sensor_type;location;lat;lon;timestamp;temperature;humidity
7934;DHT22;4012;48.896;9.192;2023-03-05T00:00:03;4.30;99.90
7934;DHT22;4012;48.896;9.192;2023-03-05T00:02:29;4.20;99.90
7934;DHT22;4012;48.896;9.192;2023-03-05T00:04:56;4.20;99.90
7934;DHT22;4012;48.896;9.192;2023-03-05T00:07:21;4.20;99.90
7934;DHT22;4012;48.896;9.192;2023-03-05T00:09:47;4.20;99.90
7934;DHT22;4012;48.896;9.192;2023-03-05T00:12:12;4.20;99.90
7934;DHT22;4012;48.896;9.192;2023-03-05T00:14:39;4.20;99.90
7934;DHT22;4012;48.896;9.192;2023-03-05T00:17:04;4.20;99.90
7934;DHT22;4012;48.896;9.192;2023-03-05T00:19:30;4.20;99.90
7934;DHT22;4012;48.896;9.192;2023-03-05T00:21:55;4.30;99.90
7934;DHT22;4012;48.896;9.192;2023-03-05T00:24:21;4.30;99.90
7934;DHT22;4012;48.896;9.192;2023-03-05T00:26:46;4.30;99.90
7934;DHT22;4012;48.896;9.192;2023-03-05T00:29:17;4.40;99.90
7934;DHT22;4012;48.896;9.192;2023-03-05T00:31:44;4.40;99.90
7934;DHT22;4012;48.896;9.192;2023-03-05T00:34:13;4.40;99.90
7934;DHT22;4012;48.896;9.192;2023-03-05T00:36:45;4.40;99.90
7934;DHT22;4012;48.896;9.192;2023-03-05T00:39:11;4.30;99.90
7934;DHT22;4012;48.896;9.192;2023-03-05T00:41:37;4.30;99.90
7934;DHT22;4012;48.896;9.192;2023-03-05T00:44:03;4.20;99.90
7934;DHT22;4012;48.896;9.192;2023-03-05T00:46:28;4.20;99.90
7934;DHT22;4012;48.896;9.192;2023-03-05T00:48:54;4.20;99.90
7934;DHT22;4012;48.896;9.192;2023-03-05T00:51:21;4.20;99.90
7934;DHT22;4012;48.896;9.192;2023-03-05T00:53:46;4.20;99.90
7934;DHT22;4012;48.896;9.192;2023-03-05T00:56:12;4.20;99.90
7934;DHT22;4012;48.896;9.192;2023-03-05T00:58:38;4.20;99.90
7934;DHT22;4012;48.896;9.192;2023-03-05T01:01:04;4.20;99.90
7934;DHT22;4012;48.896;9.192;2023-03-05T01:03:32;4.10;99.90
7934;DHT22;4012;48.896;9.192;2023-03-05T01:05:58;4.10;99.90
7934;DHT22;4012;48.896;9.192;2023-03-05T01:08:25;4.10;99.90
7934;DHT22;4012;48.896;9.192;2023-03-05T01:10:51;4.10;99.90
7934;DHT22;4012;48.896;9.192;2023-03-05T01:13:17;4.00;99.90
7934;DHT22;4012;48.896;9.192;2023-03-05T01:15:43;4.10;99.90
7934;DHT22;4012;48.896;9.192;2023-03-05T01:18:08;4.00;99.90
7934;DHT22;4012;48.896;9.192;2023-03-05T01:20:34;4.10;99.90
7934;DHT22;4012;48.896;9.192;2023-03-05T01:23:00;4.00;99.90
7934;DHT22;4012;48.896;9.192;2023-03-05T01:25:26;4.10;99.90
7934;DHT22;4012;48.896;9.192;2023-03-05T01:27:53;4.10;99.90
7934;DHT22;4012;48.896;9.192;2023-03-05T01:30:19;4.10;99.90
7934;DHT22;4012;48.896;9.192;2023-03-05T01:32:45;4.10;99.90
7934;DHT22;4012;48.896;9.192;2023-03-05T01:35:16;4.00;99.90
7934;DHT22;4012;48.896;9.192;2023-03-05T01:37:42;4.10;99.90
7934;DHT22;4012;48.896;9.192;2023-03-05T01:40:10;4.10;99.90
7934;DHT22;4012;48.896;9.192;2023-03-05T01:42:36;4.00;99.90
7934;DHT22;4012;48.896;9.192;2023-03-05T01:45:09;4.10;99.90
7934;DHT22;4012;48.896;9.192;2023-03-05T01:47:36;4.00;99.90
7934;DHT22;4012;48.896;9.192;2023-03-05T01:50:03;3.90;99.90
7934;DHT22;4012;48.896;9.192;2023-03-05T01:52:31;3.90;99.90
7934;DHT22;4012;48.896;9.192;2023-03-05T01:55:04;4.00;99.90
7934;DHT22;4012;48.896;9.192;2023-03-05T01:57:37;3.90;99.90
7934;DHT22;4012;48.896;9.192;2023-03-05T02:00:12;4.00;99.90
7934;DHT22;4012;48.896;9.192;2023-03-05T02:02:40;4.00;99.90
7934;DHT22;4012;48.896;9.192;2023-03-05T02:05:10;4.10;99.90
7934;DHT22;4012;48.896;9.192;2023-03-05T02:07:37;4.10;99.90
7934;DHT22;4012;48.896;9.192;2023-03-05T02:12:42;4.10;99.90
7934;DHT22;4012;48.896;9.192;2023-03-05T02:15:08;4.20;99.90
7934;DHT22;4012;48.896;9.192;2023-03-05T02:17:34;4.10;99.90
7934;DHT22;4012;48.896;9.192;2023-03-05T02:20:26;4.10;99.90
7934;DHT22;4012;48.896;9.192;2023-03-05T02:22:52;4.10;99.90
7934;DHT22;4012;48.896;9.192;2023-03-05T02:25:23;4.00;99.90
7934;DHT22;4012;48.896;9.192;2023-03-05T02:28:11;4.00;99.90
7934;DHT22;4012;48.896;9.192;2023-03-05T02:30:38;4.00;99.90
7934;DHT22;4012;48.896;9.192;2023-03-05T02:33:04;4.00;99.90
7934;DHT22;4012;48.896;9.192;2023-03-05T02:35:30;4.00;99.90
7934;DHT22;4012;48.896;9.192;2023-03-05T02:37:56;4.00;99.90
7934;DHT22;4012;48.896;9.192;2023-03-05T02:40:22;4.00;99.90
7934;DHT22;4012;48.896;9.192;2023-03-05T02:42:48;4.00;99.90
7934;DHT22;4012;48.896;9.192;2023-03-05T02:45:13;4.00;99.90
7934;DHT22;4012;48.896;9.192;2023-03-05T02:47:39;4.00;99.90
7934;DHT22;4012;48.896;9.192;2023-03-05T02:50:06;4.00;99.90
7934;DHT22;4012;48.896;9.192;2023-03-05T02:52:32;4.00;99.90
7934;DHT22;4012;48.896;9.192;2023-03-05T02:54:58;4.00;99.90
7934;DHT22;4012;48.896;9.192;2023-03-05T02:57:23;3.90;99.90
7934;DHT22;4012;48.896;9.192;2023-03-05T02:59:49;3.90;99.90
7934;DHT22;4012;48.896;9.192;2023-03-05T03:02:15;4.00;99.90
7934;DHT22;4012;48.896;9.192;2023-03-05T03:04:47;4.00;99.90
7934;DHT22;4012;48.896;9.192;2023-03-05T03:07:13;4.00;99.90
7934;DHT22;4012;48.896;9.192;2023-03-05T03:09:40;4.00;99.90
7934;DHT22;4012;48.896;9.192;2023-03-05T03:12:07;4.10;99.90
7934;DHT22;4012;48.896;9.192;2023-03-05T03:14:34;4.00;99.90
7934;DHT22;4012;48.896;9.192;2023-03-05T03:17:15;4.00;99.90
7934;DHT22;4012;48.896;9.192;2023-03-05T03:19:42;4.10;99.90
7934;DHT22;4012;48.896;9.192;2023-03-05T03:22:09;4.00;99.90
7934;DHT22;4012;48.896;9.192;2023-03-05T03:24:36;4.00;99.90
7934;DHT22;4012;48.896;9.192;2023-03-05T03:27:03;4.00;99.90
7934;DHT22;4012;48.896;9.192;2023-03-05T03:29:28;4.10;99.90
7934;DHT22;4012;48.896;9.192;2023-03-05T03:31:54;4.00;99.90
7934;DHT22;4012;48.896;9.192;2023-03-05T03:34:20;4.00;99.90
7934;DHT22;4012;48.896;9.192;2023-03-05T03:36:46;3.90;99.90
7934;DHT22;4012;48.896;9.192;2023-03-05T03:39:13;3.90;99.90
7934;DHT22;4012;48.896;9.192;2023-03-05T03:41:48;3.90;99.90
7934;DHT22;4012;48.896;9.192;2023-03-05T03:44:14;3.90;99.90
7934;DHT22;4012;48.896;9.192;2023-03-05T03:46:42;3.90;99.90
7934;DHT22;4012;48.896;9.192;2023-03-05T03:49:31;3.90;99.90
7934;DHT22;4012;48.896;9.192;2023-03-05T03:51:57;3.90;99.90
7934;DHT22;4012;48.896;9.192;2023-03-05T03:54:23;3.90;99.90
7934;DHT22;4012;48.896;9.192;2023-03-05T03:56:49;3.90;99.90
7934;DHT22;4012;48.896;9.192;2023-03-05T03:59:14;3.90;99.90
7934;DHT22;4012;48.896;9.192;2023-03-05T04:01:40;3.90;99.90
7934;DHT22;4012;48.896;9.192;2023-03-05T04:04:06;4.00;99.90
7934;DHT22;4012;48.896;9.192;2023-03-05T04:06:33;4.00;99.90
7934;DHT22;4012;48.896;9.192;2023-03-05T04:09:01;4.00;99.90
7934;DHT22;4012;48.896;9.192;2023-03-05T04:11:30;4.00;99.90
7934;DHT22;4012;48.896;9.192;2023-03-05T04:13:56;3.90;99.90
7934;DHT22;4012;48.896;9.192;2023-03-05T04:16:22;3.90;99.90
7934;DHT22;4012;48.896;9.192;2023-03-05T04:18:48;3.90;99.90
7934;DHT22;4012;48.896;9.192;2023-03-05T04:21:13;3.90;99.90
7934;DHT22;4012;48.896;9.192;2023-03-05T04:23:39;3.90;99.90
7934;DHT22;4012;48.896;9.192;2023-03-05T04:26:05;3.90;99.90
7934;DHT22;4012;48.896;9.192;2023-03-05T04:28:31;3.90;99.90
7934;DHT22;4012;48.896;9.192;2023-03-05T04:30:57;3.90;99.90
7934;DHT22;4012;48.896;9.192;2023-03-05T04:33:23;3.90;99.90
7934;DHT22;4012;48.896;9.192;2023-03-05T04:35:49;3.80;99.90
7934;DHT22;4012;48.896;9.192;2023-03-05T04:38:14;3.80;99.90
7934;DHT22;4012;48.896;9.192;2023-03-05T04:40:40;3.80;99.90
7934;DHT22;4012;48.896;9.192;2023-03-05T04:43:06;3.80;99.90
7934;DHT22;4012;48.896;9.192;2023-03-05T04:45:32;3.70;99.90
7934;DHT22;4012;48.896;9.192;2023-03-05T04:47:58;3.80;99.90
7934;DHT22;4012;48.896;9.192;2023-03-05T04:50:23;3.70;99.90
7934;DHT22;4012;48.896;9.192;2023-03-05T04:52:49;3.70;99.90
7934;DHT22;4012;48.896;9.192;2023-03-05T04:55:16;3.80;99.90
7934;DHT22;4012;48.896;9.192;2023-03-05T04:57:42;3.80;99.90
7934;DHT22;4012;48.896;9.192;2023-03-05T05:00:10;3.80;99.90
7934;DHT22;4012;48.896;9.192;2023-03-05T05:02:40;3.80;99.90
7934;DHT22;4012;48.896;9.192;2023-03-05T05:05:07;3.70;99.90
7934;DHT22;4012;48.896;9.192;2023-03-05T05:07:33;3.70;99.90
7934;DHT22;4012;48.896;9.192;2023-03-05T05:09:58;3.70;99.90
7934;DHT22;4012;48.896;9.192;2023-03-05T05:12:27;3.70;99.90
7934;DHT22;4012;48.896;9.192;2023-03-05T05:14:54;3.70;99.90
7934;DHT22;4012;48.896;9.192;2023-03-05T05:17:19;3.70;99.90
7934;DHT22;4012;48.896;9.192;2023-03-05T05:19:45;3.80;99.90
7934;DHT22;4012;48.896;9.192;2023-03-05T05:22:10;3.80;99.90
7934;DHT22;4012;48.896;9.192;2023-03-05T05:24:36;3.80;99.90
7934;DHT22;4012;48.896;9.192;2023-03-05T05:27:01;3.80;99.90
7934;DHT22;4012;48.896;9.192;2023-03-05T05:29:27;3.70;99.90
7934;DHT22;4012;48.896;9.192;2023-03-05T05:31:52;3.70;99.90
7934;DHT22;4012;48.896;9.192;2023-03-05T05:34:18;3.80;99.90
7934;DHT22;4012;48.896;9.192;2023-03-05T05:36:44;3.70;99.90
7934;DHT22;4012;48.896;9.192;2023-03-05T05:39:09;3.80;99.90
7934;DHT22;4012;48.896;9.192;2023-03-05T05:41:35;3.80;99.90
7934;DHT22;4012;48.896;9.192;2023-03-05T05:44:01;3.80;99.90
7934;DHT22;4012;48.896;9.192;2023-03-05T05:46:26;3.80;99.90
7934;DHT22;4012;48.896;9.192;2023-03-05T05:48:53;3.80;99.90
7934;DHT22;4012;48.896;9.192;2023-03-05T05:51:21;3.70;99.90
7934;DHT22;4012;48.896;9.192;2023-03-05T05:53:48;3.70;99.90
7934;DHT22;4012;48.896;9.192;2023-03-05T05:56:14;3.70;99.90
7934;DHT22;4012;48.896;9.192;2023-03-05T05:58:45;3.70;99.90
7934;DHT22;4012;48.896;9.192;2023-03-05T06:03:43;3.70;99.90
7934;DHT22;4012;48.896;9.192;2023-03-05T06:06:14;3.70;99.90
7934;DHT22;4012;48.896;9.192;2023-03-05T06:08:40;3.80;99.90
7934;DHT22;4012;48.896;9.192;2023-03-05T06:11:06;3.80;99.90
7934;DHT22;4012;48.896;9.192;2023-03-05T06:13:32;3.80;99.90
7934;DHT22;4012;48.896;9.192;2023-03-05T06:16:00;3.80;99.90
7934;DHT22;4012;48.896;9.192;2023-03-05T06:18:26;3.80;99.90
7934;DHT22;4012;48.896;9.192;2023-03-05T06:20:56;3.70;99.90
7934;DHT22;4012;48.896;9.192;2023-03-05T06:23:22;3.70;99.90
7934;DHT22;4012;48.896;9.192;2023-03-05T06:25:48;3.70;99.90
7934;DHT22;4012;48.896;9.192;2023-03-05T06:28:15;3.80;99.90
7934;DHT22;4012;48.896;9.192;2023-03-05T06:30:40;3.70;99.90
7934;DHT22;4012;48.896;9.192;2023-03-05T06:33:06;3.70;99.90
7934;DHT22;4012;48.896;9.192;2023-03-05T06:35:32;3.70;99.90
7934;DHT22;4012;48.896;9.192;2023-03-05T06:37:57;3.70;99.90
7934;DHT22;4012;48.896;9.192;2023-03-05T06:40:23;3.70;99.90
7934;DHT22;4012;48.896;9.192;2023-03-05T06:42:49;3.70;99.90
7934;DHT22;4012;48.896;9.192;2023-03-05T06:45:14;3.80;99.90
7934;DHT22;4012;48.896;9.192;2023-03-05T06:47:40;3.80;99.90
7934;DHT22;4012;48.896;9.192;2023-03-05T06:50:06;3.70;99.90
7934;DHT22;4012;48.896;9.192;2023-03-05T06:52:31;3.80;99.90
7934;DHT22;4012;48.896;9.192;2023-03-05T06:54:57;3.80;99.90
7934;DHT22;4012;48.896;9.192;2023-03-05T06:57:23;3.90;99.90
7934;DHT22;4012;48.896;9.192;2023-03-05T06:59:48;3.90;99.90
7934;DHT22;4012;48.896;9.192;2023-03-05T07:02:14;3.90;99.90
7934;DHT22;4012;48.896;9.192;2023-03-05T07:04:40;3.90;99.90
7934;DHT22;4012;48.896;9.192;2023-03-05T07:07:05;3.90;99.90
7934;DHT22;4012;48.896;9.192;2023-03-05T07:09:31;3.90;99.90
7934;DHT22;4012;48.896;9.192;2023-03-05T07:11:57;3.90;99.90
7934;DHT22;4012;48.896;9.192;2023-03-05T07:14:22;3.90;99.90
7934;DHT22;4012;48.896;9.192;2023-03-05T07:16:48;3.90;99.90
7934;DHT22;4012;48.896;9.192;2023-03-05T07:19:14;4.00;99.90
7934;DHT22;4012;48.896;9.192;2023-03-05T07:21:40;3.90;99.90
7934;DHT22;4012;48.896;9.192;2023-03-05T07:24:06;4.00;99.90
7934;DHT22;4012;48.896;9.192;2023-03-05T07:26:32;4.00;99.90
7934;DHT22;4012;48.896;9.192;2023-03-05T07:28:58;4.00;99.90
7934;DHT22;4012;48.896;9.192;2023-03-05T07:31:25;4.00;99.90
7934;DHT22;4012;48.896;9.192;2023-03-05T07:33:57;4.00;99.90
7934;DHT22;4012;48.896;9.192;2023-03-05T07:36:23;4.00;99.90
7934;DHT22;4012;48.896;9.192;2023-03-05T07:38:49;4.00;99.90
7934;DHT22;4012;48.896;9.192;2023-03-05T07:41:16;4.10;99.90
7934;DHT22;4012;48.896;9.192;2023-03-05T07:43:47;4.00;99.90
7934;DHT22;4012;48.896;9.192;2023-03-05T07:46:15;4.00;99.90
7934;DHT22;4012;48.896;9.192;2023-03-05T07:48:41;4.10;99.90
7934;DHT22;4012;48.896;9.192;2023-03-05T07:51:15;4.20;99.90
7934;DHT22;4012;48.896;9.192;2023-03-05T07:53:42;4.10;99.90
7934;DHT22;4012;48.896;9.192;2023-03-05T07:56:08;4.10;99.90
7934;DHT22;4012;48.896;9.192;2023-03-05T07:58:34;4.10;99.90
7934;DHT22;4012;48.896;9.192;2023-03-05T08:01:00;4.10;99.90
7934;DHT22;4012;48.896;9.192;2023-03-05T08:03:25;4.10;99.90
7934;DHT22;4012;48.896;9.192;2023-03-05T08:05:51;4.00;99.90
7934;DHT22;4012;48.896;9.192;2023-03-05T08:08:17;4.10;99.90
7934;DHT22;4012;48.896;9.192;2023-03-05T08:10:43;4.00;99.90
7934;DHT22;4012;48.896;9.192;2023-03-05T08:13:08;4.00;99.90
7934;DHT22;4012;48.896;9.192;2023-03-05T08:15:36;4.10;99.90
7934;DHT22;4012;48.896;9.192;2023-03-05T08:18:02;4.10;99.90
7934;DHT22;4012;48.896;9.192;2023-03-05T08:20:28;4.20;99.90
7934;DHT22;4012;48.896;9.192;2023-03-05T08:22:53;4.30;99.90
7934;DHT22;4012;48.896;9.192;2023-03-05T08:25:19;4.30;99.90
7934;DHT22;4012;48.896;9.192;2023-03-05T08:27:46;4.20;99.90
7934;DHT22;4012;48.896;9.192;2023-03-05T08:30:15;4.30;99.90
7934;DHT22;4012;48.896;9.192;2023-03-05T08:32:41;4.30;99.90
7934;DHT22;4012;48.896;9.192;2023-03-05T08:35:07;4.30;99.90
7934;DHT22;4012;48.896;9.192;2023-03-05T08:37:34;4.10;99.90
7934;DHT22;4012;48.896;9.192;2023-03-05T08:40:00;4.10;99.90
7934;DHT22;4012;48.896;9.192;2023-03-05T08:42:25;4.20;99.90
7934;DHT22;4012;48.896;9.192;2023-03-05T08:44:51;4.10;99.90
7934;DHT22;4012;48.896;9.192;2023-03-05T08:47:17;4.20;99.90
7934;DHT22;4012;48.896;9.192;2023-03-05T08:49:43;4.20;99.90
7934;DHT22;4012;48.896;9.192;2023-03-05T08:52:09;4.10;99.90
7934;DHT22;4012;48.896;9.192;2023-03-05T08:54:36;4.10;99.90
7934;DHT22;4012;48.896;9.192;2023-03-05T08:57:01;4.20;99.90
7934;DHT22;4012;48.896;9.192;2023-03-05T08:59:28;4.20;99.90
7934;DHT22;4012;48.896;9.192;2023-03-05T09:01:53;4.30;99.90
7934;DHT22;4012;48.896;9.192;2023-03-05T09:04:19;4.30;99.90
7934;DHT22;4012;48.896;9.192;2023-03-05T09:06:44;4.30;99.90
7934;DHT22;4012;48.896;9.192;2023-03-05T09:09:10;4.30;99.90
7934;DHT22;4012;48.896;9.192;2023-03-05T09:11:37;4.40;99.90
7934;DHT22;4012;48.896;9.192;2023-03-05T09:14:05;4.40;99.90
7934;DHT22;4012;48.896;9.192;2023-03-05T09:16:31;4.50;99.90
7934;DHT22;4012;48.896;9.192;2023-03-05T09:18:58;4.60;99.90
7934;DHT22;4012;48.896;9.192;2023-03-05T09:21:24;4.60;99.90
7934;DHT22;4012;48.896;9.192;2023-03-05T09:23:50;4.70;99.90
7934;DHT22;4012;48.896;9.192;2023-03-05T09:26:16;4.80;99.90
7934;DHT22;4012;48.896;9.192;2023-03-05T09:28:44;4.80;99.90
7934;DHT22;4012;48.896;9.192;2023-03-05T09:31:10;4.80;99.90
7934;DHT22;4012;48.896;9.192;2023-03-05T09:33:37;4.90;99.90
7934;DHT22;4012;48.896;9.192;2023-03-05T09:36:05;4.90;99.90
7934;DHT22;4012;48.896;9.192;2023-03-05T09:38:39;4.90;99.90
7934;DHT22;4012;48.896;9.192;2023-03-05T09:41:17;5.00;99.90
7934;DHT22;4012;48.896;9.192;2023-03-05T09:43:56;5.00;99.90
7934;DHT22;4012;48.896;9.192;2023-03-05T09:51:44;5.10;99.90
7934;DHT22;4012;48.896;9.192;2023-03-05T09:54:19;5.00;99.90
7934;DHT22;4012;48.896;9.192;2023-03-05T09:56:49;5.00;99.90
7934;DHT22;4012;48.896;9.192;2023-03-05T09:59:27;5.00;99.90
7934;DHT22;4012;48.896;9.192;2023-03-05T10:01:58;4.80;99.90
7934;DHT22;4012;48.896;9.192;2023-03-05T10:04:44;4.70;99.90
7934;DHT22;4012;48.896;9.192;2023-03-05T10:07:17;4.60;99.90
7934;DHT22;4012;48.896;9.192;2023-03-05T10:10:00;4.70;99.90
7934;DHT22;4012;48.896;9.192;2023-03-05T10:12:42;4.70;99.90
7934;DHT22;4012;48.896;9.192;2023-03-05T10:15:18;4.80;99.90
7934;DHT22;4012;48.896;9.192;2023-03-05T10:28:17;5.00;99.90
7934;DHT22;4012;48.896;9.192;2023-03-05T10:33:38;5.10;99.90
7934;DHT22;4012;48.896;9.192;2023-03-05T10:42:14;5.10;99.90
7934;DHT22;4012;48.896;9.192;2023-03-05T10:44:58;5.30;99.90
7934;DHT22;4012;48.896;9.192;2023-03-05T10:50:26;5.50;99.90
7934;DHT22;4012;48.896;9.192;2023-03-05T10:53:16;5.50;99.90
7934;DHT22;4012;48.896;9.192;2023-03-05T10:55:43;5.40;99.90
7934;DHT22;4012;48.896;9.192;2023-03-05T10:58:14;5.40;99.90
7934;DHT22;4012;48.896;9.192;2023-03-05T11:03:59;5.50;99.90
7934;DHT22;4012;48.896;9.192;2023-03-05T11:14:34;5.50;99.90
7934;DHT22;4012;48.896;9.192;2023-03-05T11:17:03;5.50;99.90
7934;DHT22;4012;48.896;9.192;2023-03-05T11:19:46;5.50;99.90
7934;DHT22;4012;48.896;9.192;2023-03-05T11:22:23;5.60;99.90
7934;DHT22;4012;48.896;9.192;2023-03-05T11:25:15;5.70;99.90
7934;DHT22;4012;48.896;9.192;2023-03-05T11:27:53;5.80;99.90
7934;DHT22;4012;48.896;9.192;2023-03-05T11:30:23;5.70;99.90
7934;DHT22;4012;48.896;9.192;2023-03-05T11:32:54;5.70;99.90
7934;DHT22;4012;48.896;9.192;2023-03-05T11:35:33;5.90;99.90
7934;DHT22;4012;48.896;9.192;2023-03-05T11:38:01;6.20;99.90
7934;DHT22;4012;48.896;9.192;2023-03-05T11:40:29;6.30;99.90
7934;DHT22;4012;48.896;9.192;2023-03-05T11:42:58;6.30;99.90
7934;DHT22;4012;48.896;9.192;2023-03-05T11:45:26;6.40;99.90
7934;DHT22;4012;48.896;9.192;2023-03-05T11:47:57;6.30;99.90
7934;DHT22;4012;48.896;9.192;2023-03-05T11:50:28;6.40;99.90
7934;DHT22;4012;48.896;9.192;2023-03-05T11:53:01;6.40;99.90
7934;DHT22;4012;48.896;9.192;2023-03-05T11:55:41;6.30;99.90
7934;DHT22;4012;48.896;9.192;2023-03-05T11:58:37;6.40;99.90
7934;DHT22;4012;48.896;9.192;2023-03-05T12:01:14;6.50;99.90
7934;DHT22;4012;48.896;9.192;2023-03-05T12:03:41;6.70;99.90
7934;DHT22;4012;48.896;9.192;2023-03-05T12:08:46;6.50;99.90
7934;DHT22;4012;48.896;9.192;2023-03-05T12:11:19;6.50;99.90
7934;DHT22;4012;48.896;9.192;2023-03-05T12:13:48;6.50;99.90
7934;DHT22;4012;48.896;9.192;2023-03-05T12:21:37;6.20;99.90
7934;DHT22;4012;48.896;9.192;2023-03-05T12:29:40;6.00;99.90
7934;DHT22;4012;48.896;9.192;2023-03-05T12:47:34;6.30;99.90
7934;DHT22;4012;48.896;9.192;2023-03-05T12:50:00;6.20;99.90
7934;DHT22;4012;48.896;9.192;2023-03-05T12:52:29;6.10;99.90
7934;DHT22;4012;48.896;9.192;2023-03-05T12:55:14;6.00;99.90
7934;DHT22;4012;48.896;9.192;2023-03-05T12:57:43;6.10;99.90
7934;DHT22;4012;48.896;9.192;2023-03-05T13:00:15;6.20;99.90
7934;DHT22;4012;48.896;9.192;2023-03-05T13:02:49;6.30;99.90
7934;DHT22;4012;48.896;9.192;2023-03-05T13:05:29;6.20;99.90
7934;DHT22;4012;48.896;9.192;2023-03-05T13:08:25;6.30;99.90
7934;DHT22;4012;48.896;9.192;2023-03-05T13:10:53;6.20;99.90
7934;DHT22;4012;48.896;9.192;2023-03-05T13:13:19;6.10;99.90
7934;DHT22;4012;48.896;9.192;2023-03-05T13:15:48;6.00;99.90
7934;DHT22;4012;48.896;9.192;2023-03-05T13:18:25;5.80;99.90
7934;DHT22;4012;48.896;9.192;2023-03-05T13:21:04;5.60;99.90
7934;DHT22;4012;48.896;9.192;2023-03-05T13:23:32;5.60;99.90
7934;DHT22;4012;48.896;9.192;2023-03-05T13:26:16;5.50;99.90
7934;DHT22;4012;48.896;9.192;2023-03-05T13:28:45;5.50;99.90
7934;DHT22;4012;48.896;9.192;2023-03-05T13:31:26;5.50;99.90
7934;DHT22;4012;48.896;9.192;2023-03-05T13:34:04;5.50;99.90
7934;DHT22;4012;48.896;9.192;2023-03-05T13:36:32;5.60;99.90
7934;DHT22;4012;48.896;9.192;2023-03-05T13:38:58;5.50;99.90
7934;DHT22;4012;48.896;9.192;2023-03-05T13:41:28;5.60;99.90
7934;DHT22;4012;48.896;9.192;2023-03-05T13:43:58;5.60;99.90
7934;DHT22;4012;48.896;9.192;2023-03-05T13:46:31;5.60;99.90
7934;DHT22;4012;48.896;9.192;2023-03-05T13:49:15;5.70;99.90
7934;DHT22;4012;48.896;9.192;2023-03-05T13:51:48;5.80;99.90
7934;DHT22;4012;48.896;9.192;2023-03-05T13:54:15;5.90;99.90
7934;DHT22;4012;48.896;9.192;2023-03-05T13:56:49;5.90;99.90
7934;DHT22;4012;48.896;9.192;2023-03-05T13:59:21;5.70;99.90
7934;DHT22;4012;48.896;9.192;2023-03-05T14:01:48;5.70;99.90
7934;DHT22;4012;48.896;9.192;2023-03-05T14:07:06;5.60;99.90
7934;DHT22;4012;48.896;9.192;2023-03-05T14:12:13;5.40;99.90
7934;DHT22;4012;48.896;9.192;2023-03-05T14:14:46;5.40;99.90
7934;DHT22;4012;48.896;9.192;2023-03-05T14:22:45;5.40;99.90
7934;DHT22;4012;48.896;9.192;2023-03-05T14:25:31;5.30;99.90
7934;DHT22;4012;48.896;9.192;2023-03-05T14:27:59;5.30;99.90
7934;DHT22;4012;48.896;9.192;2023-03-05T14:30:25;5.30;99.90
7934;DHT22;4012;48.896;9.192;2023-03-05T14:32:53;5.30;99.90
7934;DHT22;4012;48.896;9.192;2023-03-05T14:35:22;5.30;99.90
7934;DHT22;4012;48.896;9.192;2023-03-05T14:37:50;5.30;99.90
7934;DHT22;4012;48.896;9.192;2023-03-05T14:40:31;5.30;99.90
7934;DHT22;4012;48.896;9.192;2023-03-05T14:43:08;5.30;99.90
7934;DHT22;4012;48.896;9.192;2023-03-05T14:45:40;5.30;99.90
7934;DHT22;4012;48.896;9.192;2023-03-05T14:48:10;5.20;99.90
7934;DHT22;4012;48.896;9.192;2023-03-05T14:53:09;5.10;99.90
7934;DHT22;4012;48.896;9.192;2023-03-05T14:55:35;5.20;99.90
7934;DHT22;4012;48.896;9.192;2023-03-05T14:58:09;5.30;99.90
7934;DHT22;4012;48.896;9.192;2023-03-05T15:00:35;5.20;99.90
7934;DHT22;4012;48.896;9.192;2023-03-05T15:03:01;5.10;99.90
7934;DHT22;4012;48.896;9.192;2023-03-05T15:05:27;5.10;99.90
7934;DHT22;4012;48.896;9.192;2023-03-05T15:07:53;5.10;99.90
7934;DHT22;4012;48.896;9.192;2023-03-05T15:10:21;5.20;99.90
7934;DHT22;4012;48.896;9.192;2023-03-05T15:12:47;5.20;99.90
7934;DHT22;4012;48.896;9.192;2023-03-05T15:15:15;5.10;99.90
7934;DHT22;4012;48.896;9.192;2023-03-05T15:17:44;5.10;99.90
7934;DHT22;4012;48.896;9.192;2023-03-05T15:20:18;5.10;99.90
7934;DHT22;4012;48.896;9.192;2023-03-05T15:22:44;5.10;99.90
7934;DHT22;4012;48.896;9.192;2023-03-05T15:25:10;5.20;99.90
7934;DHT22;4012;48.896;9.192;2023-03-05T15:27:36;5.20;99.90
7934;DHT22;4012;48.896;9.192;2023-03-05T15:30:03;5.20;99.90
7934;DHT22;4012;48.896;9.192;2023-03-05T15:32:28;5.10;99.90
7934;DHT22;4012;48.896;9.192;2023-03-05T15:34:56;5.10;99.90
7934;DHT22;4012;48.896;9.192;2023-03-05T15:37:22;5.10;99.90
7934;DHT22;4012;48.896;9.192;2023-03-05T15:39:48;5.10;99.90
7934;DHT22;4012;48.896;9.192;2023-03-05T15:42:14;5.10;99.90
7934;DHT22;4012;48.896;9.192;2023-03-05T15:44:39;5.20;99.90
7934;DHT22;4012;48.896;9.192;2023-03-05T15:47:05;5.20;99.90
7934;DHT22;4012;48.896;9.192;2023-03-05T15:49:31;5.20;99.90
7934;DHT22;4012;48.896;9.192;2023-03-05T15:51:57;5.10;99.90
7934;DHT22;4012;48.896;9.192;2023-03-05T15:54:22;5.10;99.90
7934;DHT22;4012;48.896;9.192;2023-03-05T15:56:48;5.10;99.90
7934;DHT22;4012;48.896;9.192;2023-03-05T15:59:14;5.20;99.90
7934;DHT22;4012;48.896;9.192;2023-03-05T16:01:44;5.30;99.90
7934;DHT22;4012;48.896;9.192;2023-03-05T16:04:12;5.30;99.90
7934;DHT22;4012;48.896;9.192;2023-03-05T16:06:38;5.30;99.90
7934;DHT22;4012;48.896;9.192;2023-03-05T16:09:04;5.20;99.90
7934;DHT22;4012;48.896;9.192;2023-03-05T16:11:32;5.20;99.90
7934;DHT22;4012;48.896;9.192;2023-03-05T16:14:03;5.10;99.90
7934;DHT22;4012;48.896;9.192;2023-03-05T16:16:30;5.00;99.90
7934;DHT22;4012;48.896;9.192;2023-03-05T16:18:56;5.10;99.90
7934;DHT22;4012;48.896;9.192;2023-03-05T16:21:22;5.00;99.90
7934;DHT22;4012;48.896;9.192;2023-03-05T16:23:48;5.00;99.90
7934;DHT22;4012;48.896;9.192;2023-03-05T16:26:14;4.90;99.90
7934;DHT22;4012;48.896;9.192;2023-03-05T16:28:40;5.00;99.90
7934;DHT22;4012;48.896;9.192;2023-03-05T16:31:05;5.00;99.90
7934;DHT22;4012;48.896;9.192;2023-03-05T16:33:31;5.00;99.90
7934;DHT22;4012;48.896;9.192;2023-03-05T16:36:17;5.10;99.90
7934;DHT22;4012;48.896;9.192;2023-03-05T16:38:46;5.10;99.90
7934;DHT22;4012;48.896;9.192;2023-03-05T16:41:16;5.00;99.90
7934;DHT22;4012;48.896;9.192;2023-03-05T16:43:43;5.00;99.90
7934;DHT22;4012;48.896;9.192;2023-03-05T16:46:09;5.10;99.90
7934;DHT22;4012;48.896;9.192;2023-03-05T16:48:35;5.20;99.90
7934;DHT22;4012;48.896;9.192;2023-03-05T16:51:01;5.20;99.90
7934;DHT22;4012;48.896;9.192;2023-03-05T16:53:27;5.00;99.90
7934;DHT22;4012;48.896;9.192;2023-03-05T16:55:53;5.00;99.90
7934;DHT22;4012;48.896;9.192;2023-03-05T16:58:18;5.10;99.90
7934;DHT22;4012;48.896;9.192;2023-03-05T17:00:44;5.10;99.90
7934;DHT22;4012;48.896;9.192;2023-03-05T17:03:10;5.10;99.90
7934;DHT22;4012;48.896;9.192;2023-03-05T17:05:36;5.10;99.90
7934;DHT22;4012;48.896;9.192;2023-03-05T17:08:03;5.00;99.90
7934;DHT22;4012;48.896;9.192;2023-03-05T17:10:31;5.10;99.90
7934;DHT22;4012;48.896;9.192;2023-03-05T17:12:57;5.20;99.90
7934;DHT22;4012;48.896;9.192;2023-03-05T17:15:23;5.20;99.90
7934;DHT22;4012;48.896;9.192;2023-03-05T17:17:49;5.10;99.90
7934;DHT22;4012;48.896;9.192;2023-03-05T17:20:15;5.10;99.90
7934;DHT22;4012;48.896;9.192;2023-03-05T17:22:41;5.10;99.90
7934;DHT22;4012;48.896;9.192;2023-03-05T17:25:06;5.10;99.90
7934;DHT22;4012;48.896;9.192;2023-03-05T17:27:32;5.10;99.90
7934;DHT22;4012;48.896;9.192;2023-03-05T17:29:58;5.00;99.90
7934;DHT22;4012;48.896;9.192;2023-03-05T17:32:23;4.90;99.90
7934;DHT22;4012;48.896;9.192;2023-03-05T17:34:52;4.90;99.90
7934;DHT22;4012;48.896;9.192;2023-03-05T17:37:19;4.90;99.90
7934;DHT22;4012;48.896;9.192;2023-03-05T17:39:44;5.00;99.90
7934;DHT22;4012;48.896;9.192;2023-03-05T17:42:10;5.00;99.90
7934;DHT22;4012;48.896;9.192;2023-03-05T17:44:36;5.00;99.90
7934;DHT22;4012;48.896;9.192;2023-03-05T17:47:01;5.00;99.90
7934;DHT22;4012;48.896;9.192;2023-03-05T17:49:27;4.90;99.90